Time;durP1;ratioP1;P1;durP2;ratioP2;P2;SDS_P1;SDS_P2;PMS_P1;PMS_P2;Temp;Humidity;BMP_temperature;BMP_pressure;BME280_temperature;BME280_humidity;BME280_pressure;Samples;Min_cycle;Max_cycle;Signal;HPM_P1;HPM_P2
2024/04/17 00:00:45;;;;;;;0.90;0.90;;;10.90;91.10;;;;;;11452162;25;20251;-77
2024/04/17 00:05:51;;;;;;;1.00;1.00;;;10.70;91.10;;;;;;11458328;25;20259;-77
2024/04/17 00:10:55;;;;;;;1.10;1.10;;;10.50;91.50;;;;;;11460648;25;20242;-77
2024/04/17 00:16:01;;;;;;;1.00;1.00;;;10.30;91.30;;;;;;11465295;25;20386;-77
2024/04/17 00:21:08;;;;;;;1.30;1.30;;;10.10;91.80;;;;;;11433942;25;20244;-77
2024/04/17 00:26:12;;;;;;;2.00;2.00;;;9.90;92.50;;;;;;11444985;25;20717;-77
2024/04/17 00:31:16;;;;;;;1.87;1.87;;;9.80;93.10;;;;;;11463713;25;20240;-77
2024/04/17 00:36:23;;;;;;;1.90;1.90;;;9.70;93.50;;;;;;11466342;25;20707;-77
2024/04/17 00:41:27;;;;;;;2.30;2.30;;;9.50;93.70;;;;;;11461633;25;20231;-76
2024/04/17 00:46:31;;;;;;;2.30;2.30;;;9.50;94.20;;;;;;11454947;25;20227;-77
2024/04/17 00:51:40;;;;;;;2.70;2.70;;;9.40;94.50;;;;;;11462838;25;20274;-77
2024/04/17 00:56:44;;;;;;;3.03;3.03;;;9.40;95.10;;;;;;11459689;25;20231;-77
2024/04/17 01:01:48;;;;;;;4.60;4.60;;;9.40;95.30;;;;;;11422699;25;20247;-77
2024/04/17 01:06:55;;;;;;;4.30;4.30;;;9.40;95.60;;;;;;11452859;25;20621;-76
2024/04/17 01:11:58;;;;;;;4.40;4.40;;;9.40;95.90;;;;;;11496532;25;20227;-76
2024/04/17 01:17:02;;;;;;;4.90;4.90;;;9.40;95.80;;;;;;11431590;26;20666;-76
2024/04/17 01:22:09;;;;;;;6.00;6.00;;;9.40;95.80;;;;;;11433585;25;20239;-76
2024/04/17 01:27:16;;;;;;;6.17;6.17;;;9.40;96.10;;;;;;11432445;26;20236;-76
2024/04/17 01:32:20;;;;;;;6.47;6.47;;;9.30;96.10;;;;;;11432898;25;20227;-77
2024/04/17 01:37:24;;;;;;;7.50;7.40;;;9.30;96.40;;;;;;11392021;26;20239;-76
2024/04/17 01:42:30;;;;;;;8.33;8.23;;;9.30;96.20;;;;;;11432747;25;20224;-77
2024/04/17 01:47:35;;;;;;;8.20;8.10;;;9.20;96.40;;;;;;11399255;26;20235;-77
2024/04/17 01:52:38;;;;;;;8.60;8.50;;;9.10;96.80;;;;;;11400236;25;20228;-77
2024/04/17 01:57:45;;;;;;;8.57;8.47;;;9.10;96.90;;;;;;11431571;26;20262;-77
2024/04/17 02:02:49;;;;;;;8.87;8.77;;;9.00;97.20;;;;;;11431018;25;20267;-76
2024/04/17 02:07:53;;;;;;;9.40;9.30;;;9.00;97.60;;;;;;11431695;26;20232;-76
2024/04/17 02:13:00;;;;;;;9.20;9.10;;;9.00;97.80;;;;;;11431839;25;20224;-76
2024/04/17 02:18:04;;;;;;;8.67;8.57;;;9.00;98.20;;;;;;11431883;26;20228;-77
2024/04/17 02:23:08;;;;;;;9.33;9.23;;;9.00;98.20;;;;;;11431889;25;20700;-77
2024/04/17 02:28:14;;;;;;;7.50;7.40;;;9.00;98.40;;;;;;11429792;26;20239;-76
2024/04/17 02:33:18;;;;;;;7.80;7.70;;;9.10;98.40;;;;;;11431578;25;20236;-76
2024/04/17 02:38:22;;;;;;;7.30;7.20;;;9.10;98.70;;;;;;11323145;26;20225;-76
2024/04/17 02:43:29;;;;;;;6.40;6.40;;;9.10;98.10;;;;;;11421365;25;20243;-76
2024/04/17 02:48:33;;;;;;;7.97;7.87;;;9.00;98.60;;;;;;11430561;26;20246;-76
2024/04/17 02:53:37;;;;;;;6.20;6.20;;;9.00;98.60;;;;;;11396366;26;20232;-77
2024/04/17 02:58:43;;;;;;;5.80;5.80;;;9.10;98.70;;;;;;11463899;25;20243;-76
2024/04/17 03:03:47;;;;;;;6.70;6.70;;;9.10;98.80;;;;;;11445968;25;20239;-77
2024/04/17 03:08:52;;;;;;;6.30;6.30;;;9.10;98.80;;;;;;11429960;26;20236;-77
2024/04/17 03:13:58;;;;;;;6.10;6.10;;;9.20;98.80;;;;;;11430027;25;20326;-76
2024/04/17 03:19:02;;;;;;;5.87;5.87;;;9.30;98.80;;;;;;11429608;26;20236;-77
2024/04/17 03:24:07;;;;;;;6.13;6.13;;;9.30;98.40;;;;;;11366706;26;20243;-77
2024/04/17 03:29:14;;;;;;;5.83;5.83;;;9.30;98.50;;;;;;11429268;26;20816;-77
2024/04/17 03:34:18;;;;;;;5.90;5.90;;;9.30;98.20;;;;;;11359760;20;20280;-75
2024/04/17 03:39:22;;;;;;;7.00;7.00;;;9.20;97.90;;;;;;11398490;26;20238;-75
2024/04/17 03:44:28;;;;;;;7.40;7.30;;;9.10;97.30;;;;;;11340535;26;20245;-76
2024/04/17 03:49:32;;;;;;;7.47;7.37;;;8.90;97.60;;;;;;11343233;26;20320;-75
2024/04/17 03:54:36;;;;;;;5.93;5.93;;;8.80;97.70;;;;;;11344295;26;20653;-75
2024/04/17 03:59:43;;;;;;;8.20;8.10;;;8.70;97.80;;;;;;11352280;26;20237;-75
2024/04/17 04:04:47;;;;;;;8.60;8.50;;;8.70;98.20;;;;;;11352563;26;20240;-75
2024/04/17 04:09:51;;;;;;;7.47;7.37;;;8.70;98.40;;;;;;11351841;26;20742;-75
2024/04/17 04:14:58;;;;;;;9.80;9.70;;;8.60;98.50;;;;;;11280747;26;20233;-76
2024/04/17 04:20:02;;;;;;;10.00;9.80;;;8.60;98.70;;;;;;11277039;26;20245;-75
2024/04/17 04:25:07;;;;;;;9.47;9.37;;;8.60;98.70;;;;;;11348726;26;20275;-76
2024/04/17 04:30:14;;;;;;;9.07;8.97;;;8.50;98.70;;;;;;11345476;26;20329;-75
2024/04/17 04:35:18;;;;;;;8.97;8.87;;;8.40;98.60;;;;;;11366469;26;20236;-74
2024/04/17 04:40:22;;;;;;;8.90;8.80;;;8.40;98.80;;;;;;11381717;26;20212;-74
2024/04/17 04:45:29;;;;;;;6.43;6.43;;;8.30;98.90;;;;;;11318321;26;20336;-75
2024/04/17 04:50:33;;;;;;;8.67;8.57;;;8.30;99.30;;;;;;11408418;26;20789;-76
2024/04/17 04:55:37;;;;;;;8.60;8.50;;;8.30;99.10;;;;;;11387969;26;20272;-75
2024/04/17 05:00:44;;;;;;;7.97;7.87;;;8.30;99.30;;;;;;11425911;26;20216;-77
2024/04/17 05:05:48;;;;;;;3.40;3.40;;;8.20;99.30;;;;;;11434085;25;20236;-77
2024/04/17 05:10:52;;;;;;;7.00;7.00;;;8.20;99.40;;;;;;11382370;26;20235;-77
2024/04/17 05:15:58;;;;;;;6.70;6.70;;;8.20;99.50;;;;;;11357308;26;20228;-77
2024/04/17 05:21:02;;;;;;;6.60;6.60;;;8.20;99.70;;;;;;11430445;26;20235;-76
2024/04/17 05:26:07;;;;;;;4.60;4.60;;;8.20;99.80;;;;;;11433965;25;20231;-74
2024/04/17 05:31:13;;;;;;;5.63;5.63;;;8.20;99.80;;;;;;11401329;26;20267;-76
2024/04/17 05:36:17;;;;;;;7.00;7.00;;;8.30;99.90;;;;;;11432668;26;20227;-76
2024/04/17 05:41:21;;;;;;;7.07;7.07;;;8.30;99.90;;;;;;11357288;26;20228;-77
2024/04/17 05:46:28;;;;;;;6.17;6.17;;;8.40;99.90;;;;;;11389398;26;20212;-75
2024/04/17 05:51:32;;;;;;;2.87;2.87;;;8.60;99.90;;;;;;11344709;25;20259;-77
2024/04/17 05:56:36;;;;;;;5.33;5.33;;;8.70;99.90;;;;;;11412070;26;20234;-76
2024/04/17 06:01:42;;;;;;;6.20;6.20;;;8.80;99.90;;;;;;11424689;25;20274;-77
2024/04/17 06:06:47;;;;;;;5.43;5.43;;;8.90;99.90;;;;;;11356991;26;20259;-76
2024/04/17 06:11:51;;;;;;;6.00;6.00;;;9.00;99.90;;;;;;11356683;26;20800;-76
2024/04/17 06:16:57;;;;;;;5.50;5.50;;;9.10;99.90;;;;;;11428690;26;20223;-77
2024/04/17 06:22:02;;;;;;;5.77;5.77;;;9.20;99.90;;;;;;11356192;26;20336;-76
2024/04/17 06:27:06;;;;;;;5.70;5.70;;;9.30;99.90;;;;;;11430105;26;20315;-77
2024/04/17 06:32:13;;;;;;;5.27;5.27;;;9.40;99.90;;;;;;11384493;25;20243;-76
2024/04/17 06:37:17;;;;;;;4.80;4.80;;;9.50;99.90;;;;;;11340402;26;20332;-77
2024/04/17 06:42:21;;;;;;;4.40;4.40;;;9.50;99.80;;;;;;11418108;25;20331;-77
2024/04/17 06:47:28;;;;;;;5.27;5.27;;;9.60;99.70;;;;;;11354915;26;20221;-76
2024/04/17 06:52:32;;;;;;;4.70;4.70;;;9.70;99.70;;;;;;11394913;25;20578;-77
2024/04/17 06:57:36;;;;;;;3.17;3.17;;;9.70;99.50;;;;;;11414757;26;20239;-76
2024/04/17 07:02:42;;;;;;;4.10;4.10;;;9.70;99.40;;;;;;11415589;25;20272;-77
2024/04/17 07:07:46;;;;;;;4.47;4.47;;;9.70;99.30;;;;;;11354781;26;20598;-76
2024/04/17 07:12:50;;;;;;;4.90;4.90;;;9.70;99.30;;;;;;11383583;26;20240;-76
2024/04/17 07:17:57;;;;;;;4.90;4.90;;;9.60;99.10;;;;;;11354333;26;20805;-77
2024/04/17 07:23:02;;;;;;;5.30;5.30;;;9.60;99.60;;;;;;11323902;26;20761;-77
2024/04/17 07:28:06;;;;;;;4.97;4.97;;;9.50;99.20;;;;;;11429039;26;20235;-76
2024/04/17 07:33:13;;;;;;;4.30;4.30;;;9.50;99.30;;;;;;11354199;26;20336;-76
2024/04/17 07:38:17;;;;;;;4.47;4.47;;;9.40;99.30;;;;;;11319982;26;20331;-76
2024/04/17 07:43:22;;;;;;;4.13;4.13;;;9.30;99.20;;;;;;11429427;25;20717;-77
2024/04/17 07:48:29;;;;;;;2.50;2.50;;;9.30;98.90;;;;;;11356896;26;20236;-77
2024/04/17 07:53:33;;;;;;;4.70;4.70;;;9.20;99.00;;;;;;11362733;26;20240;-77
2024/04/17 07:58:37;;;;;;;6.00;6.00;;;9.10;99.20;;;;;;11420091;26;20721;-77
2024/04/17 08:03:44;;;;;;;5.60;5.60;;;9.10;99.40;;;;;;11352644;26;20228;-77
2024/04/17 08:08:48;;;;;;;5.90;5.90;;;9.10;99.70;;;;;;11404675;26;20261;-76
2024/04/17 08:13:52;;;;;;;6.33;6.33;;;9.20;99.80;;;;;;11423054;25;20297;-78
2024/04/17 08:18:59;;;;;;;3.10;3.10;;;9.20;99.90;;;;;;11351884;26;20308;-77
2024/04/17 08:24:03;;;;;;;3.60;3.60;;;9.20;99.90;;;;;;11424914;25;20327;-77
2024/04/17 08:29:07;;;;;;;3.10;3.10;;;9.30;99.90;;;;;;11426291;26;20259;-76
2024/04/17 08:34:15;;;;;;;6.20;6.20;;;9.40;99.90;;;;;;11304283;26;20245;-77
2024/04/17 08:39:19;;;;;;;5.77;5.77;;;9.50;99.90;;;;;;11413309;26;20254;-76
2024/04/17 08:44:31;;;;;;;5.83;5.83;;;9.70;99.90;;;;;;11350176;26;20240;-78
2024/04/17 08:49:41;;;;;;;5.40;5.40;;;9.90;99.90;;;;;;11414121;26;20228;-77
2024/04/17 08:54:46;;;;;;;5.13;5.13;;;10.10;99.90;;;;;;11399625;25;20232;-77
2024/04/17 08:59:50;;;;;;;4.10;4.10;;;10.40;99.90;;;;;;11421471;26;20220;-75
2024/04/17 09:04:57;;;;;;;4.87;4.87;;;10.50;99.80;;;;;;11422169;25;20335;-76
2024/04/17 09:10:02;;;;;;;5.23;5.23;;;10.50;99.70;;;;;;11343073;26;20232;-76
2024/04/17 09:15:07;;;;;;;4.60;4.60;;;10.50;99.60;;;;;;11342995;26;20763;-76
2024/04/17 09:20:15;;;;;;;4.30;4.30;;;10.40;99.10;;;;;;11399173;26;20220;-76
2024/04/17 09:25:19;;;;;;;3.77;3.77;;;10.30;98.30;;;;;;11407734;25;20223;-76
2024/04/17 09:30:23;;;;;;;2.90;2.90;;;10.10;98.10;;;;;;11422252;26;20619;-76
2024/04/17 09:35:30;;;;;;;5.00;5.00;;;9.90;98.60;;;;;;11316303;21;20273;-77
2024/04/17 09:40:34;;;;;;;3.77;3.77;;;9.80;98.60;;;;;;11246665;26;21022;-77
2024/04/17 09:45:39;;;;;;;4.23;4.23;;;9.70;98.50;;;;;;11193103;26;20234;-77
2024/04/17 09:50:47;;;;;;;4.63;4.63;;;9.60;98.70;;;;;;11177068;26;20728;-78
2024/04/17 09:55:51;;;;;;;4.70;4.70;;;9.60;99.00;;;;;;11181091;26;20235;-77
2024/04/17 10:00:55;;;;;;;4.87;4.87;;;9.60;99.10;;;;;;11181666;26;20240;-78
2024/04/17 10:06:03;;;;;;;5.20;5.20;;;9.60;99.00;;;;;;11182151;26;20697;-75
2024/04/17 10:11:08;;;;;;;6.90;6.90;;;9.40;99.00;;;;;;11184678;26;20897;-76
2024/04/17 10:16:14;;;;;;;5.50;5.50;;;9.50;99.90;;;;;;11161420;26;20702;-76
2024/04/17 10:21:24;;;;;;;5.80;5.80;;;9.60;99.90;;;;;;11181876;26;20263;-76
2024/04/17 10:26:38;;;;;;;6.40;6.40;;;9.80;99.90;;;;;;11184323;26;20227;-76
2024/04/17 10:31:42;;;;;;;6.67;6.67;;;9.80;99.90;;;;;;11183792;26;20819;-76
2024/04/17 10:36:57;;;;;;;7.50;7.40;;;9.90;99.70;;;;;;11176052;26;20240;-76
2024/04/17 10:42:03;;;;;;;7.00;7.00;;;10.10;99.80;;;;;;11171290;26;20264;-76
2024/04/17 10:47:08;;;;;;;7.17;7.13;;;10.30;99.90;;;;;;11151691;26;20323;-76
2024/04/17 10:52:16;;;;;;;5.90;5.90;;;10.50;99.90;;;;;;11159142;26;20650;-76
2024/04/17 10:57:21;;;;;;;6.17;6.17;;;10.70;99.60;;;;;;11169788;26;20239;-76
2024/04/17 11:02:25;;;;;;;5.57;5.57;;;11.00;99.50;;;;;;11170518;26;20647;-76
2024/04/17 11:07:32;;;;;;;5.20;5.20;;;11.20;98.50;;;;;;11183440;26;20242;-76
2024/04/17 11:12:39;;;;;;;4.30;4.30;;;11.30;98.00;;;;;;11183728;26;20715;-76
2024/04/17 11:17:43;;;;;;;4.70;4.70;;;11.40;97.80;;;;;;11183086;26;20239;-76
2024/04/17 11:22:50;;;;;;;4.00;4.00;;;11.60;97.50;;;;;;11183168;26;20231;-76
2024/04/17 11:27:54;;;;;;;3.13;3.13;;;11.80;96.90;;;;;;11183525;26;20751;-76
2024/04/17 11:32:58;;;;;;;3.40;3.40;;;12.00;96.60;;;;;;11183375;26;20265;-76
2024/04/17 11:38:04;;;;;;;2.87;2.87;;;12.00;96.00;;;;;;11183030;26;20231;-76
2024/04/17 11:43:16;;;;;;;2.77;2.77;;;11.90;95.60;;;;;;11182262;26;20346;-76
2024/04/17 11:48:20;;;;;;;2.90;2.90;;;12.10;96.00;;;;;;11182004;26;20243;-76
2024/04/17 11:53:26;;;;;;;2.70;2.70;;;12.40;96.20;;;;;;11182258;26;20339;-76
2024/04/17 11:58:33;;;;;;;2.50;2.50;;;12.60;94.60;;;;;;11180735;26;20762;-76
2024/04/17 12:03:37;;;;;;;2.90;2.90;;;12.60;95.00;;;;;;11181613;26;20235;-76
2024/04/17 12:08:44;;;;;;;2.30;2.30;;;12.80;94.60;;;;;;11181646;26;20243;-76
2024/04/17 12:13:48;;;;;;;2.30;2.30;;;12.90;94.40;;;;;;11181742;26;20336;-76
2024/04/17 12:18:52;;;;;;;2.57;2.57;;;13.00;93.80;;;;;;11181879;26;20390;-76
2024/04/17 12:24:02;;;;;;;2.00;2.00;;;13.10;93.90;;;;;;11149580;26;20308;-76
2024/04/17 12:29:06;;;;;;;2.00;2.00;;;13.20;93.70;;;;;;11180676;26;20243;-76
2024/04/17 12:34:09;;;;;;;1.63;1.63;;;13.10;93.10;;;;;;11180763;26;20246;-76
2024/04/17 12:39:16;;;;;;;1.90;1.90;;;13.00;92.20;;;;;;11180346;26;20243;-76
2024/04/17 12:44:20;;;;;;;1.73;1.73;;;12.90;92.30;;;;;;11180292;26;20327;-76
2024/04/17 12:49:24;;;;;;;1.60;1.60;;;12.90;91.20;;;;;;11180261;26;20269;-76
2024/04/17 12:54:31;;;;;;;1.20;1.20;;;13.00;90.00;;;;;;11179808;26;20343;-76
2024/04/17 12:59:36;;;;;;;1.30;1.30;;;13.10;90.00;;;;;;11179536;26;20265;-76
2024/04/17 13:04:40;;;;;;;1.40;1.40;;;13.00;87.40;;;;;;11179827;26;20310;-76
2024/04/17 13:09:47;;;;;;;0.87;0.87;;;12.90;87.20;;;;;;11181431;26;20247;-76
2024/04/17 13:14:51;;;;;;;0.80;0.80;;;12.80;86.90;;;;;;11186747;26;20247;-76
2024/04/17 13:19:55;;;;;;;0.60;0.60;;;12.70;87.10;;;;;;11185734;26;20227;-76
2024/04/17 13:25:03;;;;;;;0.80;0.80;;;12.60;88.30;;;;;;11186787;26;20242;-75
2024/04/17 13:30:08;;;;;;;0.57;0.57;;;12.50;88.80;;;;;;11186481;26;20239;-75
2024/04/17 13:35:12;;;;;;;1.10;1.10;;;12.40;89.90;;;;;;11186376;26;20713;-75
2024/04/17 13:40:19;;;;;;;1.03;1.03;;;12.30;90.10;;;;;;11184991;26;20262;-75
2024/04/17 13:45:23;;;;;;;0.80;0.80;;;12.40;89.80;;;;;;11185556;26;20278;-75
2024/04/17 13:50:27;;;;;;;0.70;0.70;;;12.40;89.20;;;;;;11185558;26;20253;-75
2024/04/17 13:55:36;;;;;;;0.90;0.90;;;12.40;89.00;;;;;;11185697;26;20239;-75
2024/04/17 14:00:40;;;;;;;0.90;0.90;;;12.30;87.50;;;;;;11185021;26;20231;-75
2024/04/17 14:05:44;;;;;;;0.80;0.80;;;12.20;88.60;;;;;;11185122;26;20570;-75
2024/04/17 14:10:51;;;;;;;0.90;0.90;;;12.20;86.40;;;;;;11185018;26;20231;-75
2024/04/17 14:15:55;;;;;;;0.70;0.70;;;12.40;81.50;;;;;;11184390;26;20235;-75
2024/04/17 14:20:59;;;;;;;0.73;0.73;;;12.40;82.20;;;;;;11184804;26;20235;-75
2024/04/17 14:26:06;;;;;;;0.70;0.70;;;12.40;83.60;;;;;;11184353;26;20235;-76
2024/04/17 14:31:10;;;;;;;0.80;0.80;;;12.40;82.70;;;;;;11184116;26;20243;-77
2024/04/17 14:36:14;;;;;;;0.70;0.70;;;12.40;83.30;;;;;;11184190;26;20235;-76
2024/04/17 14:41:21;;;;;;;1.00;1.00;;;12.40;79.50;;;;;;11184980;26;20239;-76
2024/04/17 14:46:25;;;;;;;0.60;0.60;;;12.40;79.70;;;;;;11183805;26;20270;-77
2024/04/17 14:51:29;;;;;;;0.80;0.80;;;12.30;81.10;;;;;;11184006;26;20250;-76
2024/04/17 14:56:36;;;;;;;1.00;1.00;;;12.20;80.30;;;;;;11183746;26;20286;-76
2024/04/17 15:01:42;;;;;;;1.00;1.00;;;12.10;80.80;;;;;;11181856;26;20262;-76
2024/04/17 15:06:49;;;;;;;0.30;0.30;;;12.00;81.20;;;;;;11183014;26;20590;-76
2024/04/17 15:11:58;;;;;;;0.80;0.80;;;12.20;83.40;;;;;;11183358;26;20296;-76
2024/04/17 15:17:02;;;;;;;0.50;0.50;;;12.40;82.30;;;;;;11183157;26;20729;-76
2024/04/17 15:22:06;;;;;;;0.70;0.70;;;12.70;80.70;;;;;;11183012;26;20243;-76
2024/04/17 15:27:12;;;;;;;0.30;0.30;;;12.80;79.10;;;;;;11167227;26;20231;-76
2024/04/17 15:32:17;;;;;;;0.90;0.90;;;12.80;79.60;;;;;;11179569;26;20258;-76
2024/04/17 15:37:22;;;;;;;0.70;0.70;;;12.80;80.00;;;;;;11183994;26;20231;-76
2024/04/17 15:42:28;;;;;;;0.70;0.70;;;12.80;80.40;;;;;;11167899;26;20232;-76
2024/04/17 15:47:35;;;;;;;0.30;0.30;;;12.90;79.50;;;;;;11182026;26;20736;-75
2024/04/17 15:52:39;;;;;;;0.20;0.20;;;12.80;80.80;;;;;;11178806;26;20273;-75
2024/04/17 15:57:47;;;;;;;0.70;0.70;;;12.80;75.20;;;;;;11182926;26;20262;-76
2024/04/17 16:02:51;;;;;;;0.50;0.50;;;12.70;78.70;;;;;;11198606;26;20229;-76
2024/04/17 16:07:54;;;;;;;0.70;0.70;;;12.70;77.90;;;;;;11252552;26;20649;-76
2024/04/17 16:13:02;;;;;;;0.83;0.83;;;12.70;78.40;;;;;;11175262;26;20235;-76
2024/04/17 16:18:06;;;;;;;0.60;0.60;;;12.60;79.50;;;;;;11175609;26;20239;-76
2024/04/17 16:23:10;;;;;;;0.53;0.53;;;12.60;80.80;;;;;;11181639;26;20629;-75
2024/04/17 16:28:17;;;;;;;0.60;0.60;;;12.60;78.20;;;;;;11168186;26;20274;-75
2024/04/17 16:33:21;;;;;;;0.50;0.50;;;12.60;78.40;;;;;;11214995;26;20273;-75
2024/04/17 16:38:25;;;;;;;0.50;0.50;;;12.50;79.10;;;;;;11211913;26;20271;-75
2024/04/17 16:43:31;;;;;;;0.40;0.40;;;12.20;78.70;;;;;;11179336;26;20240;-74
2024/04/17 16:48:37;;;;;;;0.80;0.80;;;12.00;79.10;;;;;;11223961;26;20711;-75
2024/04/17 16:53:42;;;;;;;0.67;0.67;;;11.60;78.80;;;;;;11180560;26;20347;-75
2024/04/17 16:58:48;;;;;;;0.77;0.77;;;11.30;80.20;;;;;;11172513;26;20647;-75
2024/04/17 17:03:52;;;;;;;0.70;0.70;;;11.00;81.40;;;;;;11175302;26;20270;-77
2024/04/17 17:08:56;;;;;;;0.80;0.80;;;10.90;83.10;;;;;;11185594;26;20261;-75
2024/04/17 17:14:03;;;;;;;0.80;0.80;;;10.80;83.60;;;;;;11181186;26;20339;-76
2024/04/17 17:19:07;;;;;;;0.70;0.70;;;10.70;85.20;;;;;;11178691;26;20335;-75
2024/04/17 17:24:11;;;;;;;0.90;0.90;;;10.70;84.30;;;;;;11168274;26;20247;-75
2024/04/17 17:29:18;;;;;;;0.80;0.80;;;10.60;83.30;;;;;;11182088;26;20243;-77
2024/04/17 17:34:22;;;;;;;0.80;0.80;;;10.60;83.50;;;;;;11181024;26;20882;-76
2024/04/17 17:39:26;;;;;;;0.90;0.90;;;10.50;83.80;;;;;;11173527;26;20238;-75
2024/04/17 17:44:32;;;;;;;0.60;0.60;;;10.40;84.90;;;;;;11184985;26;20270;-76
2024/04/17 17:49:36;;;;;;;0.60;0.60;;;10.30;86.30;;;;;;11155089;26;20732;-76
2024/04/17 17:54:40;;;;;;;0.40;0.40;;;10.20;86.40;;;;;;11186209;26;20644;-75
2024/04/17 17:59:48;;;;;;;0.60;0.60;;;10.10;86.30;;;;;;11176794;26;20269;-75
2024/04/17 18:04:52;;;;;;;0.70;0.70;;;10.00;87.20;;;;;;11181895;26;20239;-74
2024/04/17 18:09:56;;;;;;;0.67;0.67;;;9.90;88.20;;;;;;11185454;26;20646;-75
2024/04/17 18:15:02;;;;;;;0.80;0.80;;;9.80;88.60;;;;;;11185224;26;20335;-74
2024/04/17 18:20:08;;;;;;;1.00;1.00;;;9.70;88.90;;;;;;11185073;26;20336;-75
2024/04/17 18:25:12;;;;;;;0.80;0.80;;;9.60;89.70;;;;;;11185532;26;20257;-76
2024/04/17 18:30:19;;;;;;;1.00;1.00;;;9.60;90.20;;;;;;11184557;26;20666;-74
2024/04/17 18:35:23;;;;;;;1.10;1.10;;;9.50;90.30;;;;;;11184613;26;20266;-75
2024/04/17 18:40:27;;;;;;;1.10;1.10;;;9.40;90.60;;;;;;11154066;26;20755;-75
2024/04/17 18:45:37;;;;;;;1.10;1.10;;;9.40;90.70;;;;;;11210542;26;20258;-76
2024/04/17 18:50:41;;;;;;;1.20;1.20;;;9.30;90.80;;;;;;11177327;26;20281;-76
2024/04/17 18:55:45;;;;;;;0.63;0.63;;;9.20;90.60;;;;;;11174239;26;20270;-77
2024/04/17 19:00:51;;;;;;;1.00;1.00;;;9.20;90.80;;;;;;11183128;26;20238;-76
2024/04/17 19:05:56;;;;;;;1.10;1.10;;;9.20;91.00;;;;;;11220009;26;20243;-76
2024/04/17 19:11:02;;;;;;;0.83;0.83;;;9.10;90.90;;;;;;11175101;26;20329;-76
2024/04/17 19:16:17;;;;;;;1.17;1.17;;;9.00;90.60;;;;;;11176281;26;20255;-76
2024/04/17 19:21:21;;;;;;;0.90;0.90;;;8.80;90.60;;;;;;11196325;26;20271;-76
2024/04/17 19:26:25;;;;;;;1.00;1.00;;;8.60;90.70;;;;;;11185790;26;20717;-77
2024/04/17 19:31:32;;;;;;;1.10;1.10;;;8.60;90.90;;;;;;11180802;26;20269;-76
2024/04/17 19:36:36;;;;;;;1.03;1.03;;;8.50;90.80;;;;;;11178183;26;20732;-75
2024/04/17 19:41:40;;;;;;;1.00;1.00;;;8.40;90.90;;;;;;11219965;26;20274;-75
2024/04/17 19:46:46;;;;;;;1.00;1.00;;;8.30;91.20;;;;;;11177464;26;20235;-75
2024/04/17 19:51:50;;;;;;;0.90;0.90;;;8.30;91.20;;;;;;11175187;26;20323;-75
2024/04/17 19:56:54;;;;;;;0.70;0.70;;;8.30;91.30;;;;;;11179351;26;20647;-75
2024/04/17 20:02:01;;;;;;;0.90;0.90;;;8.20;91.30;;;;;;11179648;26;20266;-75
2024/04/17 20:07:05;;;;;;;0.97;0.97;;;8.20;91.60;;;;;;11181034;26;20775;-75
2024/04/17 20:12:10;;;;;;;0.90;0.90;;;8.20;91.50;;;;;;11180156;26;20301;-76
2024/04/17 20:17:16;;;;;;;0.83;0.83;;;8.20;91.50;;;;;;11173455;26;20243;-76
2024/04/17 20:22:20;;;;;;;0.80;0.80;;;8.20;91.80;;;;;;11180730;26;20251;-76
2024/04/17 20:27:24;;;;;;;0.70;0.70;;;8.20;91.80;;;;;;11181083;26;20239;-76
2024/04/17 20:32:31;;;;;;;0.90;0.90;;;8.30;91.70;;;;;;11182499;26;20583;-75
2024/04/17 20:37:35;;;;;;;0.87;0.87;;;8.30;91.60;;;;;;11178804;26;20649;-76
2024/04/17 20:42:39;;;;;;;0.70;0.70;;;8.40;91.40;;;;;;11181921;26;20241;-75
2024/04/17 20:47:46;;;;;;;1.20;1.20;;;8.30;91.30;;;;;;11186135;26;20251;-76
2024/04/17 20:52:50;;;;;;;1.10;1.10;;;8.30;91.30;;;;;;11175740;26;20356;-75
2024/04/17 20:57:54;;;;;;;1.00;1.00;;;8.30;91.20;;;;;;11176205;26;20335;-76
2024/04/17 21:03:01;;;;;;;0.90;0.90;;;8.30;91.60;;;;;;11177918;26;20239;-75
2024/04/17 21:08:06;;;;;;;0.90;0.90;;;8.30;91.70;;;;;;11174964;26;20298;-75
2024/04/17 21:13:09;;;;;;;0.90;0.90;;;8.30;92.00;;;;;;11177475;26;20247;-75
2024/04/17 21:18:16;;;;;;;0.80;0.80;;;8.40;92.00;;;;;;11178449;26;20716;-76
2024/04/17 21:23:20;;;;;;;0.77;0.77;;;8.50;92.20;;;;;;11174873;26;20235;-76
2024/04/17 21:28:25;;;;;;;1.00;1.00;;;8.60;92.10;;;;;;11176892;26;20335;-75
2024/04/17 21:33:32;;;;;;;0.60;0.60;;;8.60;91.90;;;;;;11180374;26;20334;-76
2024/04/17 21:38:36;;;;;;;1.00;1.00;;;8.70;92.00;;;;;;11176307;26;20323;-76
2024/04/17 21:43:40;;;;;;;0.80;0.80;;;8.70;92.00;;;;;;11184546;26;20339;-76
2024/04/17 21:48:47;;;;;;;0.80;0.80;;;8.70;91.80;;;;;;11207035;26;20231;-77
2024/04/17 21:53:51;;;;;;;0.87;0.87;;;8.70;91.70;;;;;;11182611;26;20304;-76
2024/04/17 21:58:57;;;;;;;0.90;0.90;;;8.70;92.00;;;;;;11184674;26;20331;-76
2024/04/17 22:04:04;;;;;;;0.60;0.60;;;8.80;92.20;;;;;;11184358;26;20240;-76
2024/04/17 22:09:08;;;;;;;0.90;0.90;;;8.50;99.90;;;;;;11185146;26;20231;-76
2024/04/17 22:14:12;;;;;;;0.70;0.70;;;8.90;99.90;;;;;;11184529;26;20697;-76
2024/04/17 22:19:19;;;;;;;0.70;0.70;;;8.80;97.20;;;;;;11168302;26;20235;-76
2024/04/17 22:24:23;;;;;;;1.10;1.10;;;8.80;99.10;;;;;;11184095;26;20240;-76
2024/04/17 22:29:27;;;;;;;0.77;0.77;;;8.80;97.70;;;;;;11183915;26;20243;-76
2024/04/17 22:34:33;;;;;;;0.90;0.90;;;8.80;99.90;;;;;;11183709;26;20323;-75
2024/04/17 22:39:37;;;;;;;0.90;0.90;;;8.70;96.10;;;;;;11183776;26;20231;-76
2024/04/17 22:44:41;;;;;;;1.20;1.20;;;8.60;95.10;;;;;;11174715;26;20578;-75
2024/04/17 22:49:55;;;;;;;1.10;1.10;;;8.60;94.70;;;;;;11182343;26;20231;-76
2024/04/17 22:54:59;;;;;;;1.10;1.10;;;8.50;94.30;;;;;;11187551;26;20231;-75
2024/04/17 23:00:03;;;;;;;1.00;1.00;;;8.30;94.30;;;;;;11183430;26;20242;-76
2024/04/17 23:05:10;;;;;;;0.80;0.80;;;8.10;94.80;;;;;;11182485;26;20335;-76
2024/04/17 23:10:14;;;;;;;0.80;0.80;;;8.00;95.00;;;;;;11182465;26;20235;-75
2024/04/17 23:15:18;;;;;;;0.80;0.80;;;7.90;94.70;;;;;;11182510;26;20395;-76
2024/04/17 23:20:24;;;;;;;0.90;0.90;;;7.90;95.00;;;;;;11182524;26;20231;-76
2024/04/17 23:25:28;;;;;;;1.20;1.20;;;7.80;95.20;;;;;;11182532;26;20243;-75
2024/04/17 23:30:32;;;;;;;0.77;0.77;;;7.80;95.30;;;;;;11181288;26;20239;-76
2024/04/17 23:35:39;;;;;;;0.80;0.80;;;7.90;95.40;;;;;;11167818;26;20231;-76
2024/04/17 23:40:43;;;;;;;1.23;1.23;;;7.90;95.50;;;;;;11182446;26;20708;-76
2024/04/17 23:45:47;;;;;;;1.10;1.10;;;7.90;95.70;;;;;;11180906;26;20235;-76
2024/04/17 23:50:54;;;;;;;1.07;1.07;;;7.90;95.50;;;;;;11173658;26;20231;-75
2024/04/17 23:55:58;;;;;;;0.80;0.80;;;7.90;95.50;;;;;;11179718;26;20269;-76
